createdAt,value
2023-03-27T16:47:54.732Z,2.15
2023-03-27T16:48:08.435Z,2.60
2023-03-27T16:48:21.334Z,2.28
2023-03-27T16:48:34.002Z,1.50
2023-03-27T16:48:46.654Z,1.42
2023-03-27T16:49:00.466Z,1.40
2023-03-27T16:49:13.242Z,1.50
2023-03-27T16:49:26.311Z,1.55
2023-03-27T16:49:38.964Z,1.70
2023-03-27T16:50:07.998Z,1.77
2023-03-27T16:50:29.137Z,1.55
2023-03-27T16:50:42.038Z,1.52
2023-03-27T16:50:56.071Z,1.50
2023-03-27T16:51:08.751Z,1.50
2023-03-27T16:51:23.842Z,1.90
2023-03-27T16:51:37.497Z,2.10
2023-03-27T16:51:50.469Z,1.80
2023-03-27T16:52:03.368Z,1.45
2023-03-27T16:52:16.255Z,1.38
2023-03-27T16:52:28.997Z,1.65
2023-03-27T16:52:42.566Z,1.95
2023-03-27T16:52:55.475Z,2.10
2023-03-27T16:53:08.068Z,2.10
2023-03-27T16:53:20.784Z,2.30
2023-03-27T16:53:33.341Z,2.58
2023-03-27T16:53:46.090Z,2.80
2023-03-27T16:53:59.712Z,2.90
2023-03-27T16:54:12.608Z,3.00
2023-03-27T16:54:25.718Z,2.70
2023-03-27T16:54:38.376Z,2.38
2023-03-27T16:54:51.153Z,2.20
2023-03-27T16:55:07.166Z,2.05
2023-03-27T16:55:21.495Z,2.00
2023-03-27T16:55:34.729Z,2.20
2023-03-27T16:55:48.404Z,2.08
2023-03-27T16:56:01.490Z,2.05
2023-03-27T16:56:14.310Z,2.10
2023-03-27T16:56:27.077Z,2.10
2023-03-27T16:56:40.851Z,2.15
2023-03-27T16:56:53.617Z,2.30
2023-03-27T16:57:06.501Z,2.20
2023-03-27T16:57:19.246Z,2.50
2023-03-27T16:57:32.020Z,2.88
2023-03-27T16:57:46.727Z,2.92
2023-03-27T16:57:59.396Z,2.90
2023-03-27T16:58:12.025Z,2.92
2023-03-27T16:58:24.635Z,2.78
2023-03-27T16:58:37.267Z,2.33
2023-03-27T16:58:49.854Z,2.20
2023-03-27T16:59:04.687Z,2.35
2023-03-27T16:59:17.567Z,2.60
2023-03-27T16:59:30.319Z,2.40
2023-03-27T16:59:42.935Z,2.05
2023-03-27T16:59:55.905Z,2.20
2023-03-27T17:00:10.049Z,2.50
2023-03-27T17:00:24.450Z,2.47
2023-03-27T17:00:37.070Z,2.13
2023-03-27T17:00:49.702Z,2.03
2023-03-27T17:01:02.390Z,2.10
2023-03-27T17:01:15.095Z,1.90
2023-03-27T17:01:28.911Z,1.60
2023-03-27T17:01:41.748Z,1.65
2023-03-27T17:01:54.824Z,1.73
2023-03-27T17:02:07.576Z,1.80
2023-03-27T17:02:20.360Z,1.90
2023-03-27T17:02:34.794Z,1.90
2023-03-27T17:02:47.818Z,1.80
2023-03-27T17:03:03.195Z,1.90
2023-03-27T17:03:16.464Z,2.05
2023-03-27T17:03:29.062Z,1.75
2023-03-27T17:03:42.262Z,1.50
2023-03-27T17:03:55.878Z,1.58
2023-03-27T17:04:08.716Z,1.80
2023-03-27T17:04:21.973Z,1.98
2023-03-27T17:04:34.593Z,1.90
2023-03-27T17:04:47.266Z,1.80
2023-03-27T17:04:59.923Z,1.98
2023-03-27T17:05:14.842Z,2.00
2023-03-27T17:05:33.858Z,1.83
2023-03-27T17:05:46.670Z,1.80
2023-03-27T17:06:00.031Z,1.88
2023-03-27T17:06:15.252Z,1.80
2023-03-27T17:06:27.873Z,1.70
2023-03-27T17:06:40.917Z,1.70
2023-03-27T17:06:53.731Z,1.88
2023-03-27T17:07:06.509Z,2.10
2023-03-27T17:07:20.389Z,2.15
2023-03-27T17:07:33.109Z,2.10
2023-03-27T17:07:46.972Z,2.05
2023-03-27T17:07:59.718Z,1.90
2023-03-27T17:08:13.211Z,1.90
2023-03-27T17:08:25.881Z,1.95
2023-03-27T17:08:39.734Z,2.00
2023-03-27T17:08:55.448Z,2.00
2023-03-27T17:09:09.638Z,2.17
2023-03-27T17:09:22.762Z,2.47
2023-03-27T17:09:37.259Z,2.45
2023-03-27T17:09:50.004Z,2.20
2023-03-27T17:10:03.467Z,2.15
2023-03-27T17:10:16.910Z,2.10
2023-03-27T17:10:33.274Z,2.03
2023-03-27T17:10:46.102Z,1.98
2023-03-27T17:11:03.022Z,2.05
2023-03-27T17:11:15.806Z,2.20
2023-03-27T17:11:28.428Z,2.25
2023-03-27T17:11:42.489Z,2.22
2023-03-27T17:11:55.353Z,2.40
2023-03-27T17:12:09.817Z,2.35
2023-03-27T17:12:22.422Z,2.08
2023-03-27T17:12:35.146Z,2.05
2023-03-27T17:12:47.921Z,2.13
2023-03-27T17:13:01.845Z,2.25
2023-03-27T17:13:14.602Z,2.40
2023-03-27T17:13:27.365Z,2.17
2023-03-27T17:13:43.382Z,2.10
2023-03-27T17:13:56.441Z,2.10
2023-03-27T17:14:10.547Z,2.08
2023-03-27T17:14:23.451Z,2.13
2023-03-27T17:14:36.214Z,2.30
2023-03-27T17:14:48.793Z,2.30
2023-03-27T17:15:01.448Z,2.40
2023-03-27T17:15:16.777Z,2.33
2023-03-27T17:15:30.694Z,2.55
2023-03-27T17:15:43.466Z,2.88
2023-03-27T17:15:56.338Z,2.80
2023-03-27T17:16:09.304Z,2.67
2023-03-27T17:16:22.073Z,2.65
2023-03-27T17:16:35.931Z,2.45
2023-03-27T17:16:49.056Z,2.50
2023-03-27T17:17:01.847Z,2.70
2023-03-27T17:17:14.456Z,2.58
2023-03-27T17:17:27.623Z,2.47
2023-03-27T17:17:40.364Z,2.83
2023-03-27T17:17:54.292Z,3.67
2023-03-27T17:18:08.279Z,3.72
2023-03-27T17:18:21.081Z,3.33
2023-03-27T17:18:33.694Z,3.05
2023-03-27T17:18:46.506Z,2.88
2023-03-27T17:19:00.223Z,2.78
2023-03-27T17:19:12.992Z,2.60
2023-03-27T17:19:25.776Z,2.80
2023-03-27T17:19:38.545Z,2.90
2023-03-27T17:19:51.156Z,2.67
2023-03-27T17:20:07.902Z,2.42
2023-03-27T17:20:20.670Z,2.70
2023-03-27T17:20:34.713Z,2.88
2023-03-27T17:20:47.407Z,2.75
2023-03-27T17:20:59.998Z,2.65
2023-03-27T17:21:13.727Z,2.75
2023-03-27T17:21:27.646Z,2.90
2023-03-27T17:21:40.412Z,2.70
2023-03-27T17:21:53.178Z,2.75
2023-03-27T17:22:05.946Z,2.63
2023-03-27T17:22:18.710Z,2.60
2023-03-27T17:22:31.475Z,2.60
2023-03-27T17:22:45.742Z,2.75
2023-03-27T17:22:58.380Z,2.70
2023-03-27T17:23:11.441Z,2.70
2023-03-27T17:23:24.557Z,2.80
2023-03-27T17:23:37.211Z,2.70
2023-03-27T17:23:52.841Z,2.70
2023-03-27T17:24:05.754Z,2.80
2023-03-27T17:24:19.911Z,2.78
2023-03-27T17:24:45.732Z,2.88
2023-03-27T17:25:09.976Z,2.70
2023-03-27T17:25:23.547Z,2.63
2023-03-27T17:25:36.675Z,3.05
2023-03-27T17:25:50.102Z,3.70
2023-03-27T17:26:04.352Z,3.75
2023-03-27T17:26:24.072Z,3.67
2023-03-27T17:26:38.164Z,3.33
2023-03-27T17:26:50.924Z,3.00
2023-03-27T17:27:04.223Z,2.90
2023-03-27T17:27:18.591Z,2.90
2023-03-27T17:27:31.541Z,2.88
2023-03-27T17:27:45.152Z,2.72
2023-03-27T17:27:57.792Z,2.95
2023-03-27T17:28:10.571Z,3.05
2023-03-27T17:28:23.283Z,3.00
2023-03-27T17:28:36.378Z,2.75
2023-03-27T17:28:49.134Z,2.60
2023-03-27T17:29:03.338Z,2.70
2023-03-27T17:29:18.017Z,2.80
2023-03-27T17:29:31.477Z,2.97
2023-03-27T17:29:44.336Z,3.10
2023-03-27T17:29:57.639Z,2.97
2023-03-27T17:30:11.157Z,3.00
2023-03-27T17:30:38.067Z,2.78
2023-03-27T17:31:04.041Z,2.80
2023-03-27T17:31:18.954Z,2.90
2023-03-27T17:31:33.198Z,3.10
2023-03-27T17:31:46.196Z,2.90
2023-03-27T17:32:01.098Z,2.80
2023-03-27T17:32:13.752Z,2.97
2023-03-27T17:32:26.964Z,3.15
2023-03-27T17:32:39.968Z,3.08
2023-03-27T17:32:53.081Z,2.80
2023-03-27T17:33:05.857Z,2.70
2023-03-27T17:33:20.913Z,2.70
2023-03-27T17:33:34.030Z,2.75
2023-03-27T17:33:46.956Z,2.78
2023-03-27T17:34:00.268Z,2.70
2023-03-27T17:34:13.215Z,2.72
2023-03-27T17:34:26.033Z,2.90
2023-03-27T17:34:40.066Z,2.97
2023-03-27T17:34:52.862Z,2.80
2023-03-27T17:35:06.360Z,2.70
2023-03-27T17:35:19.047Z,2.67
2023-03-27T17:35:31.986Z,2.80
2023-03-27T17:35:44.795Z,2.67
2023-03-27T17:35:58.684Z,2.80
2023-03-27T17:36:14.469Z,2.95
2023-03-27T17:36:39.816Z,3.40
2023-03-27T17:36:56.902Z,3.55
2023-03-27T17:37:12.493Z,3.42
2023-03-27T17:37:25.975Z,3.70
2023-03-27T17:37:38.634Z,3.30
2023-03-27T17:37:51.371Z,3.20
2023-03-27T17:38:03.972Z,3.45
2023-03-27T17:38:19.105Z,3.50
2023-03-27T17:38:32.688Z,3.50
2023-03-27T17:38:45.753Z,3.55
2023-03-27T17:39:01.392Z,3.67
2023-03-27T17:39:14.112Z,3.65
2023-03-27T17:39:27.047Z,3.33
2023-03-27T17:39:39.693Z,3.10
2023-03-27T17:39:53.358Z,3.17
2023-03-27T17:40:09.778Z,3.30
2023-03-27T17:40:22.574Z,3.50
2023-03-27T17:40:39.409Z,3.40
2023-03-27T17:40:52.373Z,3.20
2023-03-27T17:41:06.998Z,3.25
2023-03-27T17:41:20.344Z,3.30
2023-03-27T17:41:33.055Z,3.40
2023-03-27T17:41:45.940Z,3.20
2023-03-27T17:41:58.562Z,3.22
2023-03-27T17:42:11.243Z,3.20
2023-03-27T17:42:24.975Z,3.10
2023-03-27T17:42:37.690Z,3.30
2023-03-27T17:42:50.468Z,3.40
2023-03-27T17:43:03.090Z,3.15
2023-03-27T17:43:15.858Z,3.00
2023-03-27T17:43:28.566Z,3.20
2023-03-27T17:43:42.279Z,3.20
2023-03-27T17:43:54.949Z,3.15
2023-03-27T17:44:10.529Z,3.28
2023-03-27T17:44:23.128Z,3.22
2023-03-27T17:44:38.096Z,3.17
2023-03-27T17:44:50.845Z,3.28
2023-03-27T17:45:05.439Z,3.20
2023-03-27T17:45:18.237Z,3.40
2023-03-27T17:45:30.976Z,3.53
2023-03-27T17:45:43.941Z,3.53
2023-03-27T17:45:56.910Z,3.60
2023-03-27T17:46:13.828Z,3.58
2023-03-27T17:46:26.799Z,3.80
2023-03-27T17:46:39.678Z,3.70
2023-03-27T17:46:52.388Z,3.60
2023-03-27T17:47:06.328Z,3.42
2023-03-27T17:47:19.071Z,3.22
2023-03-27T17:47:32.692Z,3.30
2023-03-27T17:47:45.867Z,3.30
2023-03-27T17:47:58.567Z,3.30
2023-03-27T17:48:12.030Z,3.45
2023-03-27T17:48:26.152Z,3.20
2023-03-27T17:48:38.907Z,3.22
2023-03-27T17:48:52.527Z,3.22
2023-03-27T17:49:05.570Z,3.25
2023-03-27T17:49:18.397Z,3.33
2023-03-27T17:49:31.922Z,3.15
2023-03-27T17:49:45.249Z,3.03
2023-03-27T17:49:58.091Z,3.13
2023-03-27T17:50:12.055Z,3.10
2023-03-27T17:50:24.691Z,3.17
2023-03-27T17:50:37.655Z,3.20
2023-03-27T17:51:01.544Z,3.13
2023-03-27T17:51:21.604Z,2.90
2023-03-27T17:51:35.705Z,2.83
2023-03-27T17:51:48.465Z,3.03
2023-03-27T17:52:02.886Z,3.20
2023-03-27T17:52:15.881Z,3.00
2023-03-27T17:52:28.675Z,2.88
2023-03-27T17:52:42.471Z,2.90
2023-03-27T17:52:55.127Z,3.00
2023-03-27T17:53:07.978Z,3.35
2023-03-27T17:53:21.067Z,3.80
2023-03-27T17:53:33.844Z,4.70
2023-03-27T17:53:46.777Z,5.10
2023-03-27T17:54:00.671Z,5.00
2023-03-27T17:54:13.553Z,4.30
2023-03-27T17:54:26.386Z,3.72
2023-03-27T17:54:39.287Z,3.47
2023-03-27T17:54:52.104Z,3.30
2023-03-27T17:55:05.715Z,3.38
2023-03-27T17:55:18.904Z,3.35
2023-03-27T17:55:32.693Z,3.00
2023-03-27T17:55:45.559Z,3.10
2023-03-27T17:55:59.366Z,3.10
2023-03-27T17:56:12.294Z,3.20
2023-03-27T17:56:26.143Z,3.50
2023-03-27T17:56:40.965Z,3.53
2023-03-27T17:56:53.629Z,3.50
2023-03-27T17:57:06.786Z,3.47
2023-03-27T17:57:19.736Z,3.22
2023-03-27T17:57:33.579Z,3.08
2023-03-27T17:57:49.201Z,3.10
2023-03-27T17:58:09.955Z,3.38
2023-03-27T17:58:23.373Z,3.50
2023-03-27T17:58:37.192Z,3.40
2023-03-27T17:58:50.934Z,3.58
2023-03-27T17:59:05.940Z,3.65
2023-03-27T17:59:19.028Z,3.67
2023-03-27T17:59:32.025Z,3.80
2023-03-27T17:59:46.434Z,3.72
2023-03-27T17:59:59.254Z,3.70
2023-03-27T18:00:15.210Z,3.67
2023-03-27T18:00:28.041Z,3.67
2023-03-27T18:00:41.520Z,3.85
2023-03-27T18:00:55.577Z,4.40
2023-03-27T18:01:17.072Z,4.65
2023-03-27T18:01:31.635Z,4.40
2023-03-27T18:01:45.488Z,4.28
2023-03-27T18:01:58.764Z,4.03
2023-03-27T18:02:16.129Z,4.22
2023-03-27T18:02:29.162Z,4.93
2023-03-27T18:02:43.899Z,5.13
2023-03-27T18:02:57.772Z,5.22
2023-03-27T18:03:10.874Z,5.18
2023-03-27T18:03:25.237Z,5.47
2023-03-27T18:03:38.114Z,5.95
2023-03-27T18:03:51.699Z,6.43
2023-03-27T18:04:06.007Z,7.15
2023-03-27T18:04:19.002Z,7.68
2023-03-27T18:04:33.172Z,7.60
2023-03-27T18:04:48.769Z,7.40
2023-03-27T18:05:01.437Z,7.20
2023-03-27T18:05:15.902Z,7.55
2023-03-27T18:05:28.976Z,7.72
2023-03-27T18:05:43.237Z,9.55
2023-03-27T18:05:56.138Z,13.02
2023-03-27T18:06:09.075Z,15.77
2023-03-27T18:06:22.903Z,17.15
2023-03-27T18:06:36.625Z,17.70
2023-03-27T18:06:49.241Z,16.90
2023-03-27T18:07:02.098Z,15.82
2023-03-27T18:07:14.832Z,14.82
2023-03-27T18:07:27.886Z,14.32
2023-03-27T18:07:42.362Z,14.63
2023-03-27T18:07:55.382Z,14.18
2023-03-27T18:08:10.290Z,12.95
2023-03-27T18:08:23.097Z,12.07
2023-03-27T18:08:35.993Z,11.73
2023-03-27T18:08:48.805Z,11.50
2023-03-27T18:09:01.534Z,11.48
2023-03-27T18:09:15.495Z,11.20
2023-03-27T18:09:28.255Z,11.63
2023-03-27T18:09:41.688Z,12.20
2023-03-27T18:09:54.303Z,12.77
2023-03-27T18:10:10.058Z,12.90
2023-03-27T18:10:23.262Z,12.90
2023-03-27T18:10:36.475Z,12.70
2023-03-27T18:10:51.477Z,12.15
2023-03-27T18:11:09.192Z,11.90
2023-03-27T18:11:22.089Z,11.55
2023-03-27T18:11:34.908Z,10.35
2023-03-27T18:11:47.551Z,9.18
2023-03-27T18:12:00.232Z,9.02
2023-03-27T18:12:14.302Z,8.65
2023-03-27T18:12:27.293Z,8.20
2023-03-27T18:12:40.289Z,8.30
2023-03-27T18:12:52.939Z,8.20
2023-03-27T18:13:05.696Z,8.50
2023-03-27T18:13:19.793Z,8.75
2023-03-27T18:13:32.581Z,8.35
2023-03-27T18:13:51.252Z,8.27
2023-03-27T18:14:04.147Z,9.10
2023-03-27T18:14:17.561Z,9.63
2023-03-27T18:14:31.186Z,9.90
2023-03-27T18:14:43.899Z,9.65
2023-03-27T18:14:57.445Z,9.30
2023-03-27T18:15:10.689Z,9.63
2023-03-27T18:15:23.714Z,9.40
2023-03-27T18:15:36.620Z,9.13
2023-03-27T18:15:55.402Z,8.98
2023-03-27T18:16:10.738Z,9.27
2023-03-27T18:16:23.723Z,9.05
2023-03-27T18:16:36.930Z,8.63
2023-03-27T18:16:49.810Z,8.75
2023-03-27T18:17:02.585Z,8.80
2023-03-27T18:17:20.852Z,8.38
2023-03-27T18:17:35.545Z,8.20
2023-03-27T18:17:48.450Z,8.10
2023-03-27T18:18:01.451Z,8.52
2023-03-27T18:18:14.108Z,9.68
2023-03-27T18:18:28.289Z,10.55
2023-03-27T18:18:42.153Z,10.13
2023-03-27T18:18:55.747Z,9.05
2023-03-27T18:19:09.334Z,8.15
2023-03-27T18:19:24.114Z,7.43
2023-03-27T18:19:36.905Z,7.07
2023-03-27T18:19:49.730Z,7.47
2023-03-27T18:20:02.588Z,8.18
2023-03-27T18:20:15.780Z,9.50
2023-03-27T18:20:28.417Z,9.50
2023-03-27T18:20:42.898Z,9.38
2023-03-27T18:20:55.689Z,9.40
2023-03-27T18:21:08.625Z,9.40
2023-03-27T18:21:21.711Z,9.60
2023-03-27T18:21:34.549Z,11.25
2023-03-27T18:21:47.448Z,13.27
2023-03-27T18:22:01.875Z,14.23
2023-03-27T18:22:14.656Z,14.70
2023-03-27T18:22:27.883Z,15.07
2023-03-27T18:22:40.881Z,15.82
2023-03-27T18:22:53.652Z,16.67
2023-03-27T18:23:06.786Z,16.17
2023-03-27T18:23:20.855Z,15.85
2023-03-27T18:23:35.107Z,14.70
2023-03-27T18:23:48.090Z,14.05
2023-03-27T18:24:00.772Z,14.30
2023-03-27T18:24:13.340Z,14.73
2023-03-27T18:24:26.263Z,14.73
2023-03-27T18:24:40.516Z,15.90
2023-03-27T18:24:53.350Z,17.70
2023-03-27T18:25:08.709Z,18.63
2023-03-27T18:25:21.442Z,17.65
2023-03-27T18:25:34.362Z,17.13
2023-03-27T18:25:47.235Z,16.95
2023-03-27T18:26:03.678Z,17.10
2023-03-27T18:26:17.761Z,17.60
2023-03-27T18:26:30.720Z,18.60
2023-03-27T18:26:43.526Z,19.73
2023-03-27T18:26:56.231Z,20.85
2023-03-27T18:27:08.885Z,21.55
2023-03-27T18:27:21.665Z,22.52
2023-03-27T18:27:34.692Z,22.92
2023-03-27T18:27:48.260Z,22.10
2023-03-27T18:28:02.115Z,21.88
2023-03-27T18:28:15.046Z,22.05
2023-03-27T18:28:27.681Z,22.48
2023-03-27T18:28:40.413Z,24.25
2023-03-27T18:28:55.259Z,25.77
2023-03-27T18:29:08.218Z,26.40
2023-03-27T18:29:21.272Z,26.55
2023-03-27T18:29:34.465Z,27.48
2023-03-27T18:29:47.284Z,30.02
2023-03-27T18:30:01.618Z,31.38
2023-03-27T18:30:17.564Z,30.63
2023-03-27T18:30:32.211Z,28.90
2023-03-27T18:30:45.070Z,28.70
2023-03-27T18:30:59.210Z,29.33
2023-03-27T18:31:12.803Z,30.23
2023-03-27T18:31:25.905Z,31.52
2023-03-27T18:31:39.704Z,31.92
2023-03-27T18:31:52.420Z,32.50
2023-03-27T18:32:05.246Z,32.50
2023-03-27T18:32:17.877Z,32.88
2023-03-27T18:32:30.694Z,32.50
2023-03-27T18:32:45.196Z,32.85
2023-03-27T18:32:58.350Z,32.80
2023-03-27T18:33:12.402Z,31.92
2023-03-27T18:33:25.294Z,31.95
2023-03-27T18:33:39.595Z,32.65
2023-03-27T18:33:52.465Z,35.47
2023-03-27T18:34:05.172Z,37.13
2023-03-27T18:34:18.983Z,37.55
2023-03-27T18:34:31.778Z,37.75
2023-03-27T18:34:45.346Z,38.28
2023-03-27T18:34:58.122Z,40.20
2023-03-27T18:35:13.980Z,40.53
2023-03-27T18:35:26.644Z,40.03
2023-03-27T18:35:42.688Z,40.65
2023-03-27T18:35:57.310Z,41.55
2023-03-27T18:36:11.594Z,41.20
2023-03-27T18:36:24.782Z,40.15
2023-03-27T18:36:37.671Z,40.05
2023-03-27T18:36:51.817Z,40.83
2023-03-27T18:37:04.624Z,40.20
2023-03-27T18:37:18.391Z,40.40
2023-03-27T18:37:30.956Z,42.15
2023-03-27T18:37:44.781Z,42.88
2023-03-27T18:37:58.008Z,41.65
2023-03-27T18:38:11.747Z,40.38
2023-03-27T18:38:26.452Z,40.70
2023-03-27T18:38:40.178Z,41.42
2023-03-27T18:38:53.079Z,40.72
2023-03-27T18:39:06.730Z,40.88
2023-03-27T18:39:19.675Z,40.42
2023-03-27T18:39:36.460Z,40.55
2023-03-27T18:39:49.098Z,40.80
2023-03-27T18:40:01.860Z,40.85
2023-03-27T18:40:16.724Z,40.78
2023-03-27T18:40:32.734Z,40.13
2023-03-27T18:40:48.055Z,40.05
2023-03-27T18:41:01.707Z,40.55
2023-03-27T18:41:15.610Z,40.47
2023-03-27T18:41:28.242Z,40.30
2023-03-27T18:41:41.220Z,40.08
2023-03-27T18:41:54.994Z,40.47
2023-03-27T18:42:08.798Z,39.70
2023-03-27T18:42:22.667Z,38.45
2023-03-27T18:42:35.821Z,38.28
2023-03-27T18:42:48.687Z,38.67
2023-03-27T18:43:01.385Z,38.75
2023-03-27T18:43:14.165Z,37.75
2023-03-27T18:43:27.024Z,37.55
2023-03-27T18:43:41.312Z,38.92
2023-03-27T18:43:54.040Z,39.13
2023-03-27T18:44:07.026Z,38.70
2023-03-27T18:44:21.519Z,39.60
2023-03-27T18:44:34.964Z,42.05
2023-03-27T18:44:48.622Z,42.67
2023-03-27T18:45:01.319Z,40.47
2023-03-27T18:45:15.588Z,38.00
2023-03-27T18:45:28.317Z,37.03
2023-03-27T18:45:41.000Z,37.13
2023-03-27T18:45:57.526Z,37.55
2023-03-27T18:46:16.536Z,37.67
2023-03-27T18:46:29.664Z,36.88
2023-03-27T18:46:42.463Z,37.25
2023-03-27T18:46:55.080Z,37.85
2023-03-27T18:47:07.892Z,37.35
2023-03-27T18:47:21.684Z,36.10
2023-03-27T18:47:36.254Z,35.78
2023-03-27T18:47:49.221Z,35.50
2023-03-27T18:48:01.978Z,34.22
2023-03-27T18:48:16.391Z,32.75
2023-03-27T18:48:31.065Z,32.10
2023-03-27T18:48:49.010Z,32.38
2023-03-27T18:49:10.263Z,32.70
2023-03-27T18:49:30.452Z,33.33
2023-03-27T18:49:44.404Z,34.05
2023-03-27T18:49:57.665Z,32.67
2023-03-27T18:50:13.059Z,30.80
2023-03-27T18:50:26.129Z,29.42
2023-03-27T18:50:39.231Z,29.38
2023-03-27T18:50:55.189Z,29.23
2023-03-27T18:51:07.874Z,28.33
2023-03-27T18:51:23.958Z,28.20
2023-03-27T18:51:36.835Z,28.02
2023-03-27T18:51:49.437Z,28.67
2023-03-27T18:52:02.110Z,28.83
2023-03-27T18:52:14.904Z,27.92
2023-03-27T18:52:28.161Z,27.38
2023-03-27T18:52:42.512Z,27.50
2023-03-27T18:52:55.358Z,27.35
2023-03-27T18:53:08.338Z,27.00
2023-03-27T18:53:21.064Z,26.80
2023-03-27T18:53:33.749Z,26.85
2023-03-27T18:53:47.669Z,26.83
2023-03-27T18:54:00.791Z,26.80
2023-03-27T18:54:13.617Z,26.23
2023-03-27T18:54:26.519Z,25.98
2023-03-27T18:54:39.880Z,26.67
2023-03-27T18:54:52.639Z,27.10
2023-03-27T18:55:08.660Z,27.13
2023-03-27T18:55:21.265Z,26.13
2023-03-27T18:55:33.949Z,25.88
2023-03-27T18:55:48.893Z,26.52
2023-03-27T18:56:02.095Z,27.38
2023-03-27T18:56:15.122Z,27.30
2023-03-27T18:56:27.932Z,26.48
2023-03-27T18:56:41.585Z,26.15
2023-03-27T18:56:54.433Z,25.92
2023-03-27T18:57:07.278Z,26.15
2023-03-27T18:57:20.213Z,26.67
2023-03-27T18:57:34.351Z,27.27
2023-03-27T18:57:48.013Z,27.52
2023-03-27T18:58:00.767Z,27.13
2023-03-27T18:58:14.536Z,27.15
2023-03-27T18:58:28.487Z,28.40
2023-03-27T18:58:42.211Z,30.02
2023-03-27T18:58:55.349Z,30.55
2023-03-27T18:59:11.153Z,30.77
2023-03-27T18:59:23.830Z,30.35
2023-03-27T18:59:36.491Z,30.60
2023-03-27T18:59:50.344Z,32.03
2023-03-27T19:00:06.697Z,32.45
2023-03-27T19:00:20.727Z,33.95
2023-03-27T19:00:33.456Z,35.45
2023-03-27T19:00:46.481Z,36.53
2023-03-27T19:01:00.016Z,38.58
2023-03-27T19:01:12.940Z,39.35
2023-03-27T19:01:26.905Z,39.08
2023-03-27T19:01:39.687Z,38.45
2023-03-27T19:01:52.419Z,38.78
2023-03-27T19:02:05.167Z,39.45
2023-03-27T19:02:18.301Z,39.42
2023-03-27T19:02:32.271Z,40.33
2023-03-27T19:02:47.998Z,41.58
2023-03-27T19:03:00.991Z,42.13
2023-03-27T19:03:15.536Z,41.60
2023-03-27T19:03:36.377Z,40.45
2023-03-27T19:03:51.789Z,39.75
2023-03-27T19:04:06.272Z,37.78
2023-03-27T19:04:19.205Z,36.00
2023-03-27T19:04:31.784Z,35.28
2023-03-27T19:04:45.406Z,35.38
2023-03-27T19:04:58.008Z,35.60
2023-03-27T19:05:10.932Z,34.42
2023-03-27T19:05:24.594Z,33.38
2023-03-27T19:05:37.250Z,32.22
2023-03-27T19:05:51.265Z,31.88
2023-03-27T19:06:06.697Z,32.28
2023-03-27T19:06:19.726Z,32.60
2023-03-27T19:06:33.352Z,31.35
2023-03-27T19:06:47.393Z,29.95
2023-03-27T19:07:00.043Z,29.38
2023-03-27T19:07:13.891Z,27.40
2023-03-27T19:07:27.288Z,25.25
2023-03-27T19:07:44.946Z,24.23
2023-03-27T19:07:59.449Z,24.65
2023-03-27T19:08:13.256Z,25.80
2023-03-27T19:08:25.932Z,25.75
2023-03-27T19:08:42.013Z,25.63
2023-03-27T19:08:54.637Z,23.80
2023-03-27T19:09:07.528Z,22.40
2023-03-27T19:09:23.494Z,20.88
2023-03-27T19:09:46.099Z,20.35
2023-03-27T19:09:58.924Z,20.75
2023-03-27T19:10:11.640Z,20.70
2023-03-27T19:10:24.864Z,20.17
2023-03-27T19:10:38.243Z,19.77
2023-03-27T19:10:52.602Z,18.23
2023-03-27T19:11:06.615Z,16.58
2023-03-27T19:11:19.600Z,16.08
2023-03-27T19:11:33.548Z,16.00
2023-03-27T19:11:47.472Z,15.48
2023-03-27T19:12:00.758Z,15.40
2023-03-27T19:12:13.595Z,15.27
2023-03-27T19:12:27.252Z,15.00
2023-03-27T19:12:39.922Z,14.55
2023-03-27T19:12:53.277Z,13.52
2023-03-27T19:13:08.483Z,12.65
2023-03-27T19:13:22.413Z,12.07
2023-03-27T19:13:35.378Z,11.30
2023-03-27T19:13:48.159Z,10.85
2023-03-27T19:14:01.891Z,10.35
2023-03-27T19:14:14.791Z,9.95
2023-03-27T19:14:27.864Z,9.93
2023-03-27T19:14:41.637Z,9.43
2023-03-27T19:14:54.391Z,9.18
2023-03-27T19:15:19.225Z,9.10
2023-03-27T19:15:34.249Z,9.05
2023-03-27T19:15:49.102Z,8.70
2023-03-27T19:16:02.033Z,8.52
2023-03-27T19:16:27.693Z,7.93
2023-03-27T19:16:40.855Z,8.10
2023-03-27T19:16:55.249Z,7.88
2023-03-27T19:17:08.000Z,7.65
2023-03-27T19:17:21.153Z,7.75
2023-03-27T19:17:33.833Z,7.38
2023-03-27T19:17:46.736Z,6.97
2023-03-27T19:17:59.383Z,6.80
2023-03-27T19:18:13.346Z,6.70
2023-03-27T19:18:29.955Z,6.78
2023-03-27T19:18:42.630Z,7.22
2023-03-27T19:18:56.863Z,7.10
2023-03-27T19:19:09.974Z,6.82
2023-03-27T19:19:22.923Z,6.72
2023-03-27T19:19:35.545Z,6.40
2023-03-27T19:19:48.353Z,6.40
2023-03-27T19:20:02.061Z,7.03
2023-03-27T19:20:15.347Z,7.28
2023-03-27T19:20:28.454Z,6.70
2023-03-27T19:20:43.806Z,6.47
2023-03-27T19:20:57.031Z,6.70
2023-03-27T19:21:09.897Z,6.60
2023-03-27T19:21:24.390Z,6.60
2023-03-27T19:21:37.065Z,6.80
2023-03-27T19:21:50.223Z,6.68
2023-03-27T19:22:05.912Z,6.60
2023-03-27T19:22:18.662Z,6.65
2023-03-27T19:22:32.241Z,6.32
2023-03-27T19:22:44.876Z,6.38
2023-03-27T19:22:57.502Z,6.25
2023-03-27T19:23:10.281Z,6.47
2023-03-27T19:23:23.108Z,6.63
2023-03-27T19:23:36.048Z,6.40
2023-03-27T19:23:49.733Z,6.13
2023-03-27T19:24:02.424Z,6.13
2023-03-27T19:24:15.459Z,6.30
2023-03-27T19:24:28.128Z,6.30
2023-03-27T19:24:41.291Z,6.43
2023-03-27T19:24:53.893Z,6.95
2023-03-27T19:25:09.232Z,6.95
2023-03-27T19:25:22.073Z,7.00
2023-03-27T19:25:35.392Z,7.00
2023-03-27T19:25:49.038Z,6.63
2023-03-27T19:26:07.463Z,6.50
2023-03-27T19:26:21.271Z,7.03
2023-03-27T19:26:34.220Z,7.43
2023-03-27T19:26:46.920Z,7.28
2023-03-27T19:26:59.630Z,7.25
2023-03-27T19:27:24.186Z,8.23
2023-03-27T19:27:38.972Z,8.85
2023-03-27T19:27:53.149Z,8.90
2023-03-27T19:28:06.828Z,9.02
2023-03-27T19:28:20.435Z,9.52
2023-03-27T19:28:33.056Z,9.90
2023-03-27T19:28:47.689Z,9.90
2023-03-27T19:29:01.469Z,9.60
2023-03-27T19:29:14.266Z,9.75
2023-03-27T19:29:28.676Z,9.70
2023-03-27T19:29:41.461Z,9.77
2023-03-27T19:29:54.374Z,9.73
2023-03-27T19:30:11.250Z,9.30
2023-03-27T19:30:25.416Z,9.98
2023-03-27T19:30:38.252Z,10.75
2023-03-27T19:30:52.914Z,10.73
2023-03-27T19:31:07.583Z,9.95
2023-03-27T19:31:20.899Z,9.48
2023-03-27T19:31:33.770Z,10.30
2023-03-27T19:31:47.600Z,10.95
2023-03-27T19:32:00.503Z,11.52
2023-03-27T19:32:13.173Z,12.02
2023-03-27T19:32:25.924Z,12.60
2023-03-27T19:32:39.318Z,12.90
2023-03-27T19:32:52.367Z,13.02
2023-03-27T19:33:06.329Z,13.18
2023-03-27T19:33:19.382Z,12.88
2023-03-27T19:33:32.358Z,13.32
2023-03-27T19:33:45.799Z,13.40
2023-03-27T19:34:01.903Z,13.20
2023-03-27T19:34:14.716Z,13.20
2023-03-27T19:34:44.708Z,16.17
2023-03-27T19:34:57.453Z,17.40
2023-03-27T19:35:10.179Z,18.98
2023-03-27T19:35:22.856Z,20.00
2023-03-27T19:35:35.618Z,21.38
2023-03-27T19:35:53.599Z,22.75
2023-03-27T19:36:07.490Z,22.17
2023-03-27T19:36:20.191Z,21.40
2023-03-27T19:36:33.429Z,20.63
2023-03-27T19:36:46.415Z,19.70
2023-03-27T19:37:00.406Z,19.48
2023-03-27T19:37:13.076Z,19.50
2023-03-27T19:37:25.878Z,19.52
2023-03-27T19:37:38.463Z,19.65
2023-03-27T19:37:51.152Z,19.80
2023-03-27T19:38:04.896Z,19.85
2023-03-27T19:38:17.546Z,20.40
2023-03-27T19:38:30.513Z,20.75
2023-03-27T19:38:43.232Z,20.92
2023-03-27T19:38:55.936Z,21.75
2023-03-27T19:39:09.522Z,22.48
2023-03-27T19:39:22.193Z,23.42
2023-03-27T19:39:34.995Z,24.58
2023-03-27T19:39:47.652Z,26.52
2023-03-27T19:40:00.377Z,28.88
2023-03-27T19:40:14.298Z,33.15
2023-03-27T19:40:27.975Z,37.08
2023-03-27T19:40:41.026Z,37.55
2023-03-27T19:40:54.246Z,38.35
2023-03-27T19:41:10.937Z,43.85
2023-03-27T19:41:23.586Z,53.00
2023-03-27T19:41:37.223Z,57.28
2023-03-27T19:41:49.844Z,60.75
2023-03-27T19:42:02.483Z,62.72
2023-03-27T19:42:15.118Z,66.45
2023-03-27T19:42:28.608Z,68.22
2023-03-27T19:42:41.638Z,68.75
2023-03-27T19:42:55.471Z,67.10
2023-03-27T19:43:08.117Z,63.67
2023-03-27T19:43:21.599Z,61.22
2023-03-27T19:43:34.822Z,61.13
2023-03-27T19:43:47.507Z,59.38
2023-03-27T19:44:00.599Z,55.92
2023-03-27T19:44:15.903Z,51.00
2023-03-27T19:44:29.743Z,45.95
2023-03-27T19:44:42.627Z,43.08
2023-03-27T19:44:55.296Z,41.30
2023-03-27T19:45:09.037Z,41.13
2023-03-27T19:45:21.699Z,42.08
2023-03-27T19:45:35.367Z,42.25
2023-03-27T19:46:01.165Z,41.30
2023-03-27T19:46:23.221Z,41.83
2023-03-27T19:46:36.606Z,43.80
2023-03-27T19:46:50.505Z,45.00
2023-03-27T19:47:03.758Z,47.53
2023-03-27T19:47:16.634Z,49.84
2023-03-27T19:47:29.347Z,51.05
2023-03-27T19:47:42.876Z,52.75
2023-03-27T19:47:56.278Z,53.72
2023-03-27T19:48:09.031Z,54.47
2023-03-27T19:48:22.970Z,55.75
2023-03-27T19:48:36.344Z,57.10
2023-03-27T19:48:49.688Z,57.88